createdAt,value
2018-08-03T00:01:27.622Z,73.00
2018-08-03T00:03:54.769Z,73.40
2018-08-03T00:06:21.921Z,74.00
2018-08-03T00:08:49.241Z,75.10
2018-08-03T00:11:16.446Z,75.40
2018-08-03T00:13:43.649Z,75.90
2018-08-03T00:16:10.864Z,76.50
2018-08-03T00:18:37.997Z,76.50
2018-08-03T00:21:05.206Z,77.10
2018-08-03T00:23:32.330Z,78.00
2018-08-03T00:25:59.452Z,79.30
2018-08-03T00:28:26.631Z,79.30
2018-08-03T00:30:53.774Z,79.90
2018-08-03T00:35:48.039Z,80.50
2018-08-03T00:38:15.218Z,81.30
2018-08-03T00:40:42.425Z,80.70
2018-08-03T00:43:09.693Z,81.70
2018-08-03T00:45:36.855Z,83.30
2018-08-03T00:48:04.010Z,82.70
2018-08-03T00:50:31.129Z,83.40
2018-08-03T00:52:58.250Z,84.20
2018-08-03T00:55:25.378Z,84.90
2018-08-03T00:57:52.717Z,84.70
2018-08-03T01:00:19.982Z,85.20
2018-08-03T01:02:47.163Z,85.10
2018-08-03T01:05:14.388Z,86.20
2018-08-03T01:07:41.535Z,86.70
2018-08-03T01:10:08.765Z,86.90
2018-08-03T01:12:35.905Z,88.00
2018-08-03T01:15:03.770Z,87.30
2018-08-03T01:17:30.877Z,88.00
2018-08-03T01:19:57.985Z,87.50
2018-08-03T01:22:25.118Z,87.90
2018-08-03T01:24:52.246Z,87.90
2018-08-03T01:27:19.396Z,87.80
2018-08-03T01:29:46.567Z,88.20
2018-08-03T01:32:13.758Z,88.30
2018-08-03T01:34:40.924Z,88.50
2018-08-03T01:37:08.123Z,88.70
2018-08-03T01:39:35.227Z,88.70
2018-08-03T01:42:02.375Z,89.50
2018-08-03T01:44:29.522Z,90.00
2018-08-03T01:46:56.803Z,90.00
2018-08-03T01:49:24.091Z,90.30
2018-08-03T01:51:51.207Z,90.50
2018-08-03T01:54:18.342Z,90.50
2018-08-03T01:56:45.471Z,90.10
2018-08-03T01:59:12.600Z,90.30
2018-08-03T02:01:39.835Z,90.10
2018-08-03T02:04:07.013Z,89.60
2018-08-03T02:06:34.163Z,90.00
2018-08-03T02:09:01.384Z,90.40
2018-08-03T02:11:28.563Z,90.60
2018-08-03T02:13:55.703Z,90.50
2018-08-03T02:16:22.843Z,90.50
2018-08-03T02:18:49.999Z,90.50
2018-08-03T02:21:17.136Z,90.60
2018-08-03T02:23:44.275Z,90.90
2018-08-03T02:26:11.539Z,91.30
2018-08-03T02:28:38.708Z,91.30
2018-08-03T02:31:06.847Z,91.00
2018-08-03T02:33:33.962Z,91.30
2018-08-03T02:36:01.094Z,91.30
2018-08-03T02:38:28.463Z,91.20
2018-08-03T02:40:55.579Z,91.20
2018-08-03T02:43:22.720Z,91.20
2018-08-03T02:45:49.884Z,91.10
2018-08-03T02:48:17.003Z,91.30
2018-08-03T02:50:44.189Z,91.30
2018-08-03T02:53:11.275Z,91.20
2018-08-03T02:55:38.494Z,91.20
2018-08-03T02:58:05.642Z,91.80
2018-08-03T03:00:32.931Z,92.20
2018-08-03T03:03:00.087Z,92.60
2018-08-03T03:05:27.193Z,92.90
2018-08-03T03:07:54.306Z,93.30
2018-08-03T03:10:21.435Z,93.80
2018-08-03T03:12:48.567Z,94.20
2018-08-03T03:15:15.707Z,94.70
2018-08-03T03:17:42.879Z,95.20
2018-08-03T03:20:10.227Z,95.30
2018-08-03T03:22:37.454Z,95.50
2018-08-03T03:25:04.738Z,96.10
2018-08-03T03:27:31.866Z,95.90
2018-08-03T03:29:59.014Z,95.90
2018-08-03T03:32:26.253Z,95.50
2018-08-03T03:34:53.360Z,95.80
2018-08-03T03:37:20.477Z,96.20
2018-08-03T03:39:47.598Z,96.70
2018-08-03T03:42:14.827Z,96.60
2018-08-03T03:44:42.044Z,96.70
2018-08-03T03:47:09.291Z,96.70
2018-08-03T03:49:36.494Z,97.20
2018-08-03T03:52:03.599Z,97.90
2018-08-03T03:54:30.702Z,97.90
2018-08-03T03:56:57.859Z,99.10
2018-08-03T03:59:24.988Z,99.90
2018-08-03T04:01:52.109Z,99.90
2018-08-03T04:04:19.236Z,99.90
2018-08-03T04:06:46.354Z,99.90
2018-08-03T04:09:13.500Z,99.90
2018-08-03T04:11:41.104Z,99.90
2018-08-03T04:14:08.560Z,99.90
2018-08-03T04:16:36.339Z,99.90
2018-08-03T04:19:03.461Z,99.90
2018-08-03T04:21:30.586Z,99.90
2018-08-03T04:23:57.721Z,99.90
2018-08-03T04:26:24.889Z,99.90
2018-08-03T04:28:52.024Z,99.90
2018-08-03T04:31:19.184Z,99.90
2018-08-03T04:33:46.779Z,99.10
2018-08-03T04:36:14.047Z,98.00
2018-08-03T04:38:41.272Z,97.20
2018-08-03T04:41:08.455Z,96.30
2018-08-03T04:43:35.600Z,95.60
2018-08-03T04:46:02.718Z,95.30
2018-08-03T04:48:29.854Z,94.50
2018-08-03T04:50:56.992Z,94.00
2018-08-03T04:53:24.187Z,94.00
2018-08-03T04:55:51.316Z,94.40
2018-08-03T04:58:18.428Z,94.40
2018-08-03T05:00:45.628Z,94.30
2018-08-03T05:03:12.836Z,94.00
2018-08-03T05:05:40.144Z,93.20
2018-08-03T05:08:07.457Z,91.90
2018-08-03T05:10:34.599Z,90.50
2018-08-03T05:13:01.714Z,89.70
2018-08-03T05:15:28.895Z,88.80
2018-08-03T05:17:56.114Z,85.50
2018-08-03T05:20:23.230Z,80.60
2018-08-03T05:22:50.397Z,79.80
2018-08-03T05:25:17.543Z,80.70
2018-08-03T05:27:44.717Z,78.40
2018-08-03T05:30:12.125Z,67.20
2018-08-03T05:32:39.269Z,60.50
2018-08-03T05:35:07.327Z,55.60
2018-08-03T05:37:34.471Z,51.90
2018-08-03T05:40:01.632Z,49.70
2018-08-03T05:42:28.811Z,47.50
2018-08-03T05:44:55.921Z,46.50
2018-08-03T05:47:23.032Z,45.00
2018-08-03T05:49:50.407Z,44.10
2018-08-03T05:52:17.528Z,43.00
2018-08-03T05:54:44.703Z,42.40
2018-08-03T05:57:11.912Z,40.90
2018-08-03T05:59:39.176Z,39.90
2018-08-03T06:02:06.951Z,38.60
2018-08-03T06:04:34.095Z,37.70
2018-08-03T06:07:01.266Z,38.60
2018-08-03T06:09:28.449Z,39.70
2018-08-03T06:11:55.592Z,37.90
2018-08-03T06:14:22.739Z,37.30
2018-08-03T06:16:49.858Z,35.80
2018-08-03T06:19:16.983Z,35.20
2018-08-03T06:21:44.163Z,34.10
2018-08-03T06:26:38.764Z,32.50
2018-08-03T06:29:05.914Z,34.00
2018-08-03T06:31:33.016Z,33.80
2018-08-03T06:34:00.132Z,33.60
2018-08-03T06:36:27.304Z,32.50
2018-08-03T06:38:54.448Z,31.10
2018-08-03T06:41:21.578Z,30.20
2018-08-03T06:43:48.713Z,29.70
2018-08-03T06:46:15.856Z,29.10
2018-08-03T06:48:43.326Z,29.60
2018-08-03T06:51:10.514Z,30.00
2018-08-03T06:53:37.840Z,30.00
2018-08-03T06:56:05.017Z,29.70
2018-08-03T06:58:32.148Z,29.30
2018-08-03T07:00:59.352Z,28.50
2018-08-03T07:03:26.478Z,28.90
2018-08-03T07:05:53.662Z,28.30
2018-08-03T07:08:20.783Z,27.90
2018-08-03T07:10:47.916Z,29.70
2018-08-03T07:13:15.047Z,30.80
2018-08-03T07:15:42.585Z,29.80
2018-08-03T07:18:09.775Z,30.00
2018-08-03T07:20:36.988Z,29.50
2018-08-03T07:23:04.140Z,30.00
2018-08-03T07:25:31.288Z,29.40
2018-08-03T07:27:58.500Z,29.60
2018-08-03T07:30:25.678Z,29.40
2018-08-03T07:32:52.848Z,28.80
2018-08-03T07:35:19.962Z,28.50
2018-08-03T07:37:47.131Z,28.80
2018-08-03T07:40:14.293Z,27.80
2018-08-03T07:42:41.489Z,27.10
2018-08-03T07:45:08.648Z,25.80
2018-08-03T07:47:35.761Z,26.70
2018-08-03T07:50:03.035Z,25.70
2018-08-03T07:52:30.169Z,25.20
2018-08-03T07:54:57.360Z,25.20
2018-08-03T07:57:24.476Z,24.50
2018-08-03T07:59:51.567Z,25.20
2018-08-03T08:02:18.695Z,25.70
2018-08-03T08:04:45.884Z,24.90
2018-08-03T08:07:13.210Z,25.30
2018-08-03T08:09:40.441Z,24.70
2018-08-03T08:12:07.648Z,24.50
2018-08-03T08:14:34.780Z,24.60
2018-08-03T08:17:01.951Z,24.80
2018-08-03T08:19:29.089Z,24.20
2018-08-03T08:21:56.227Z,25.30
2018-08-03T08:24:23.384Z,25.00
2018-08-03T08:26:50.575Z,24.80
2018-08-03T08:29:17.699Z,25.20
2018-08-03T08:31:45.034Z,25.60
2018-08-03T08:34:12.213Z,26.20
2018-08-03T08:36:39.470Z,27.30
2018-08-03T08:39:08.762Z,26.20
2018-08-03T08:41:35.901Z,25.40
2018-08-03T08:44:03.215Z,25.10
2018-08-03T08:46:30.388Z,25.50
2018-08-03T08:48:57.524Z,27.30
2018-08-03T08:51:24.659Z,27.90
2018-08-03T08:53:51.827Z,28.10
2018-08-03T08:56:19.010Z,27.50
2018-08-03T08:58:46.159Z,28.10
2018-08-03T09:01:13.465Z,27.80
2018-08-03T09:03:40.662Z,27.10
2018-08-03T09:06:15.091Z,26.80
2018-08-03T09:08:42.251Z,26.20
2018-08-03T09:11:09.809Z,25.60
2018-08-03T09:13:36.967Z,26.70
2018-08-03T09:16:04.109Z,27.50
2018-08-03T09:18:31.232Z,28.00
2018-08-03T09:20:58.534Z,28.60
2018-08-03T09:23:25.655Z,29.60
2018-08-03T09:25:52.863Z,29.30
2018-08-03T09:28:20.194Z,29.60
2018-08-03T09:30:47.253Z,29.40
2018-08-03T09:33:14.375Z,29.50
2018-08-03T09:35:41.473Z,29.80
2018-08-03T09:38:08.636Z,30.70
2018-08-03T09:40:35.780Z,32.00
2018-08-03T09:43:02.984Z,32.70
2018-08-03T09:45:30.034Z,33.90
2018-08-03T09:47:57.154Z,36.50
2018-08-03T09:50:24.384Z,37.70
2018-08-03T09:52:51.851Z,38.80
2018-08-03T09:55:19.007Z,38.70
2018-08-03T09:57:46.088Z,38.40
2018-08-03T10:00:15.520Z,38.30
2018-08-03T10:02:42.955Z,37.90
2018-08-03T10:05:10.120Z,37.30
2018-08-03T10:07:37.286Z,37.80
2018-08-03T10:10:04.967Z,38.50
2018-08-03T10:12:32.062Z,38.30
2018-08-03T10:14:59.169Z,38.30
2018-08-03T10:17:26.288Z,38.00
2018-08-03T10:19:53.435Z,38.50
2018-08-03T10:22:20.567Z,38.90
2018-08-03T10:24:47.755Z,38.50
2018-08-03T10:27:14.859Z,38.50
2018-08-03T10:29:42.073Z,38.50
2018-08-03T10:32:09.182Z,38.80
2018-08-03T10:34:36.324Z,38.70
2018-08-03T10:37:03.423Z,39.20
2018-08-03T10:39:30.506Z,39.00
2018-08-03T10:41:57.607Z,39.60
2018-08-03T10:44:24.711Z,39.70
2018-08-03T10:46:51.830Z,39.40
2018-08-03T10:49:18.931Z,39.90
2018-08-03T10:51:46.031Z,39.30
2018-08-03T10:54:13.356Z,38.90
2018-08-03T10:56:40.498Z,38.50
2018-08-03T10:59:07.666Z,38.30
2018-08-03T11:01:34.837Z,37.60
2018-08-03T11:04:01.902Z,37.50
2018-08-03T11:06:29.030Z,37.40
2018-08-03T11:08:56.161Z,38.20
2018-08-03T11:11:23.283Z,37.70
2018-08-03T11:13:50.448Z,37.40
2018-08-03T11:18:44.671Z,37.30
2018-08-03T11:21:11.814Z,37.50
2018-08-03T11:23:38.946Z,37.50
2018-08-03T11:26:06.072Z,37.40
2018-08-03T11:28:33.225Z,36.80
2018-08-03T11:31:00.363Z,36.20
2018-08-03T11:33:27.497Z,36.30
2018-08-03T11:35:54.775Z,35.80
2018-08-03T11:38:21.882Z,35.50
2018-08-03T11:40:49.012Z,35.90
2018-08-03T11:43:16.103Z,36.50
2018-08-03T11:45:43.208Z,36.20
2018-08-03T11:48:10.339Z,36.00
2018-08-03T11:50:37.470Z,36.20
2018-08-03T11:53:04.613Z,35.70
2018-08-03T11:55:31.895Z,35.10
2018-08-03T11:57:59.319Z,34.80
2018-08-03T12:00:26.439Z,33.80
2018-08-03T12:02:53.562Z,33.90
2018-08-03T12:05:20.663Z,33.70
2018-08-03T12:07:47.765Z,33.80
2018-08-03T12:10:14.889Z,32.80
2018-08-03T12:12:42.007Z,31.80
2018-08-03T12:15:09.131Z,32.00
2018-08-03T12:17:36.231Z,32.50
2018-08-03T12:20:03.482Z,32.90
2018-08-03T12:22:30.616Z,32.80
2018-08-03T12:27:24.868Z,32.70
2018-08-03T12:29:51.991Z,33.30
2018-08-03T12:32:19.103Z,33.50
2018-08-03T12:34:46.198Z,33.40
2018-08-03T12:37:13.344Z,33.20
2018-08-03T12:42:07.872Z,33.10
2018-08-03T12:44:34.988Z,33.20
2018-08-03T12:47:02.102Z,33.10
2018-08-03T12:49:29.189Z,32.80
2018-08-03T12:51:56.307Z,33.00
2018-08-03T12:54:23.427Z,33.00
2018-08-03T12:56:50.554Z,33.00
2018-08-03T12:59:17.666Z,33.10
2018-08-03T13:01:44.777Z,33.00
2018-08-03T13:04:12.076Z,33.00
2018-08-03T13:06:39.221Z,32.60
2018-08-03T13:09:06.964Z,32.90
2018-08-03T13:11:34.087Z,33.10
2018-08-03T13:14:01.215Z,33.00
2018-08-03T13:16:28.400Z,32.90
2018-08-03T13:18:55.579Z,33.00
2018-08-03T13:21:33.247Z,33.00
2018-08-03T13:24:01.272Z,33.20
2018-08-03T13:26:28.439Z,33.00
2018-08-03T13:28:56.082Z,33.10
2018-08-03T13:31:24.182Z,32.80
2018-08-03T13:33:51.473Z,32.80
2018-08-03T13:36:19.030Z,32.50
2018-08-03T13:38:46.774Z,33.30
2018-08-03T13:41:14.343Z,32.40
2018-08-03T13:43:41.481Z,32.40
2018-08-03T13:46:08.631Z,32.20
2018-08-03T13:48:35.790Z,32.00
2018-08-03T13:51:03.212Z,31.80
2018-08-03T13:53:30.314Z,31.50
2018-08-03T13:55:57.439Z,31.90
2018-08-03T13:58:24.754Z,32.40
2018-08-03T14:01:02.190Z,31.90
2018-08-03T14:03:29.328Z,32.40
2018-08-03T14:05:56.495Z,32.50
2018-08-03T14:08:23.639Z,32.70
2018-08-03T14:10:50.747Z,32.40
2018-08-03T14:13:17.855Z,32.60
2018-08-03T14:15:44.987Z,32.20
2018-08-03T14:18:12.098Z,32.40
2018-08-03T14:20:39.240Z,32.60
2018-08-03T14:23:06.382Z,33.00
2018-08-03T14:25:33.490Z,32.90
2018-08-03T14:28:00.580Z,32.80
2018-08-03T14:30:27.712Z,32.40
2018-08-03T14:32:54.846Z,31.90
2018-08-03T14:35:21.967Z,32.40
2018-08-03T14:37:49.078Z,31.90
2018-08-03T14:40:16.186Z,31.60
2018-08-03T14:42:43.289Z,31.70
2018-08-03T14:45:10.419Z,31.20
2018-08-03T14:47:37.633Z,31.30
2018-08-03T14:50:04.875Z,31.20
2018-08-03T14:52:31.987Z,31.30
2018-08-03T14:54:59.188Z,31.20
2018-08-03T14:57:26.446Z,31.30
2018-08-03T14:59:53.549Z,31.20
2018-08-03T15:02:20.662Z,31.10
2018-08-03T15:04:47.828Z,31.40
2018-08-03T15:07:15.188Z,31.70
2018-08-03T15:09:42.413Z,31.70
2018-08-03T15:12:09.538Z,31.50
2018-08-03T15:14:36.662Z,31.60
2018-08-03T15:17:03.771Z,32.00
2018-08-03T15:19:30.894Z,32.00
2018-08-03T15:21:57.995Z,31.90
2018-08-03T15:24:25.121Z,31.50
2018-08-03T15:26:52.222Z,31.50
2018-08-03T15:29:19.356Z,31.90
2018-08-03T15:31:46.474Z,31.20
2018-08-03T15:34:13.569Z,31.70
2018-08-03T15:36:40.740Z,32.20
2018-08-03T15:39:08.875Z,31.80
2018-08-03T15:41:36.009Z,32.00
2018-08-03T15:44:03.193Z,31.70
2018-08-03T15:46:30.375Z,31.60
2018-08-03T15:48:57.487Z,31.50
2018-08-03T15:51:24.610Z,31.20
2018-08-03T15:53:51.725Z,31.10
2018-08-03T15:56:18.835Z,31.00
2018-08-03T15:58:45.994Z,31.20
2018-08-03T16:01:13.150Z,31.30
2018-08-03T16:03:40.307Z,31.00
2018-08-03T16:06:07.511Z,31.50
2018-08-03T16:08:34.839Z,31.20
2018-08-03T16:11:01.939Z,31.40
2018-08-03T16:13:29.219Z,31.70
2018-08-03T16:15:56.325Z,31.80
2018-08-03T16:18:23.435Z,31.40
2018-08-03T16:20:50.557Z,31.20
2018-08-03T16:23:17.879Z,31.40
2018-08-03T16:25:45.015Z,31.60
2018-08-03T16:28:12.162Z,31.70
2018-08-03T16:30:39.235Z,32.00
2018-08-03T16:33:06.347Z,31.90
2018-08-03T16:35:33.463Z,31.70
2018-08-03T16:38:00.582Z,31.40
2018-08-03T16:40:27.669Z,31.30
2018-08-03T16:42:54.788Z,31.60
2018-08-03T16:45:21.917Z,31.30
2018-08-03T16:47:49.043Z,31.30
2018-08-03T16:50:16.159Z,31.60
2018-08-03T16:52:43.286Z,31.40
2018-08-03T16:55:10.442Z,31.10
2018-08-03T16:57:37.809Z,31.50
2018-08-03T17:00:05.681Z,31.80
2018-08-03T17:04:59.911Z,32.00
2018-08-03T17:07:27.033Z,31.50
2018-08-03T17:09:54.373Z,31.40
2018-08-03T17:12:21.491Z,31.50
2018-08-03T17:14:48.612Z,31.70
2018-08-03T17:17:15.747Z,31.70
2018-08-03T17:19:42.842Z,31.60
2018-08-03T17:22:10.202Z,31.50
2018-08-03T17:24:37.307Z,31.30
2018-08-03T17:27:04.495Z,31.40
2018-08-03T17:29:31.606Z,31.30
2018-08-03T17:31:58.701Z,31.50
2018-08-03T17:34:25.847Z,31.50
2018-08-03T17:36:53.013Z,31.50
2018-08-03T17:39:20.077Z,31.80
2018-08-03T17:41:47.235Z,31.70
2018-08-03T17:44:14.360Z,31.70
2018-08-03T17:46:41.502Z,31.60
2018-08-03T17:49:08.663Z,31.40
2018-08-03T17:51:35.819Z,31.60
2018-08-03T17:56:30.109Z,32.10
2018-08-03T17:58:57.223Z,32.30
2018-08-03T18:01:24.365Z,31.90
2018-08-03T18:03:51.483Z,32.10
2018-08-03T18:06:18.739Z,32.90
2018-08-03T18:08:45.846Z,32.40
2018-08-03T18:11:13.143Z,32.60
2018-08-03T18:13:40.270Z,32.90
2018-08-03T18:16:08.207Z,34.00
2018-08-03T18:18:35.301Z,35.50
2018-08-03T18:21:02.525Z,35.60
2018-08-03T18:23:29.659Z,36.20
2018-08-03T18:25:56.794Z,36.70
2018-08-03T18:28:23.902Z,37.20
2018-08-03T18:30:51.029Z,37.40
2018-08-03T18:33:18.123Z,38.00
2018-08-03T18:35:45.247Z,37.50
2018-08-03T18:38:12.374Z,38.30
2018-08-03T18:40:39.486Z,38.30
2018-08-03T18:43:06.606Z,38.30
2018-08-03T18:45:33.820Z,38.50
2018-08-03T18:48:00.951Z,37.60
2018-08-03T18:52:55.267Z,38.50
2018-08-03T18:55:22.394Z,40.40
2018-08-03T18:57:49.503Z,41.30
2018-08-03T19:00:16.616Z,42.20
2018-08-03T19:02:43.747Z,42.40
2018-08-03T19:05:10.901Z,42.30
2018-08-03T19:07:38.015Z,42.60
2018-08-03T19:10:05.144Z,43.10
2018-08-03T19:12:32.258Z,43.40
2018-08-03T19:14:59.418Z,44.30
2018-08-03T19:17:26.522Z,44.60
2018-08-03T19:19:53.606Z,45.00
2018-08-03T19:22:20.710Z,44.80
2018-08-03T19:24:47.810Z,45.20
2018-08-03T19:27:14.918Z,45.40
2018-08-03T19:29:42.047Z,45.30
2018-08-03T19:32:09.330Z,45.60
2018-08-03T19:34:36.604Z,45.00
2018-08-03T19:37:03.944Z,45.10
2018-08-03T19:39:31.055Z,45.50
2018-08-03T19:41:58.179Z,45.60
2018-08-03T19:44:25.331Z,45.40
2018-08-03T19:46:52.450Z,45.40
2018-08-03T19:49:19.564Z,45.30
2018-08-03T19:51:46.853Z,45.30
2018-08-03T19:54:13.991Z,45.30
2018-08-03T19:56:41.126Z,45.20
2018-08-03T19:59:08.475Z,45.20
2018-08-03T20:01:35.503Z,45.50
2018-08-03T20:04:02.835Z,45.60
2018-08-03T20:06:29.964Z,46.20
2018-08-03T20:08:57.092Z,46.40
2018-08-03T20:11:24.231Z,46.10
2018-08-03T20:13:51.468Z,46.30
2018-08-03T20:16:18.444Z,45.40
2018-08-03T20:18:45.559Z,44.90
2018-08-03T20:21:12.698Z,44.60
2018-08-03T20:23:39.867Z,44.90
2018-08-03T20:26:06.991Z,45.20
2018-08-03T20:28:34.105Z,45.40
2018-08-03T20:31:01.205Z,45.60
2018-08-03T20:33:28.339Z,45.40
2018-08-03T20:35:55.595Z,45.30
2018-08-03T20:38:22.863Z,44.90
2018-08-03T20:40:49.979Z,44.80
2018-08-03T20:43:17.287Z,44.80
2018-08-03T20:45:44.414Z,45.10
2018-08-03T20:48:11.815Z,45.20
2018-08-03T20:50:38.961Z,45.30
2018-08-03T20:53:06.096Z,45.20
2018-08-03T20:58:00.383Z,44.60
2018-08-03T21:00:27.498Z,44.60
2018-08-03T21:02:54.620Z,44.50
2018-08-03T21:05:21.749Z,44.40
2018-08-03T21:07:48.920Z,44.50
2018-08-03T21:10:16.219Z,44.40
2018-08-03T21:12:43.507Z,44.40
2018-08-03T21:15:10.674Z,44.50
2018-08-03T21:17:37.875Z,44.80
2018-08-03T21:20:05.712Z,44.90
2018-08-03T21:22:32.891Z,44.70
2018-08-03T21:25:00.027Z,44.40
2018-08-03T21:27:27.181Z,44.20
2018-08-03T21:29:54.356Z,44.40
2018-08-03T21:32:21.523Z,45.00
2018-08-03T21:34:48.665Z,45.00
2018-08-03T21:37:15.901Z,44.70
2018-08-03T21:39:43.010Z,44.50
2018-08-03T21:42:10.326Z,44.30
2018-08-03T21:44:37.475Z,44.30
2018-08-03T21:47:04.616Z,43.50
2018-08-03T21:51:59.095Z,42.80
2018-08-03T21:54:26.231Z,42.80
2018-08-03T21:56:53.347Z,43.10
2018-08-03T21:59:20.465Z,42.50
2018-08-03T22:01:47.587Z,42.30
2018-08-03T22:04:14.767Z,42.10
2018-08-03T22:06:41.898Z,43.10
2018-08-03T22:09:09.448Z,42.70
2018-08-03T22:11:36.606Z,43.10
2018-08-03T22:14:03.750Z,43.30
2018-08-03T22:16:30.881Z,43.70
2018-08-03T22:18:58.048Z,44.30
2018-08-03T22:21:25.123Z,43.10
2018-08-03T22:23:52.230Z,43.40
2018-08-03T22:26:19.342Z,43.30
2018-08-03T22:28:46.439Z,43.10
2018-08-03T22:31:13.902Z,42.90
2018-08-03T22:33:41.074Z,42.70
2018-08-03T22:36:08.195Z,43.30
2018-08-03T22:38:35.313Z,43.70
2018-08-03T22:41:02.515Z,44.60
2018-08-03T22:43:29.811Z,45.60
2018-08-03T22:45:56.922Z,46.00
2018-08-03T22:48:24.043Z,46.60
2018-08-03T22:50:51.137Z,46.80
2018-08-03T22:53:18.267Z,47.00
2018-08-03T22:55:45.403Z,47.40
2018-08-03T22:58:12.546Z,47.40
2018-08-03T23:00:39.705Z,46.80
2018-08-03T23:05:34.026Z,46.80
2018-08-03T23:08:01.220Z,46.10
2018-08-03T23:10:28.292Z,46.30
2018-08-03T23:12:55.488Z,45.80
2018-08-03T23:15:22.638Z,45.60
2018-08-03T23:17:49.778Z,45.60
2018-08-03T23:20:16.950Z,45.90
2018-08-03T23:22:44.058Z,46.10
2018-08-03T23:25:11.228Z,46.10
2018-08-03T23:27:38.380Z,46.30
2018-08-03T23:30:06.430Z,46.40
2018-08-03T23:32:33.543Z,46.50
2018-08-03T23:35:00.655Z,47.00
2018-08-03T23:37:27.757Z,47.70
2018-08-03T23:40:02.895Z,47.30
2018-08-03T23:42:29.997Z,47.70
2018-08-03T23:44:57.122Z,47.70
2018-08-03T23:47:24.274Z,48.00
2018-08-03T23:49:51.375Z,48.30
2018-08-03T23:52:18.485Z,48.60
2018-08-03T23:54:45.595Z,48.90
2018-08-03T23:57:12.700Z,49.30
2018-08-03T23:59:39.856Z,49.30
